Time;durP1;ratioP1;P1;durP2;ratioP2;P2;SDS_P1;SDS_P2;PMS_P1;PMS_P2;Temp;Humidity;BMP_temperature;BMP_pressure;BME280_temperature;BME280_humidity;BME280_pressure;Samples;Min_cycle;Max_cycle;Signal;HPM_P1;HPM_P2
2023/03/29 00:00:37;;;;;;;4.07;1.98;;;;;;;4.97;77.60;101591.72;5034419;28;20469;-74
2023/03/29 00:03:02;;;;;;;4.50;2.00;;;;;;;4.96;78.00;101605.44;5032479;28;20077;-74
2023/03/29 00:05:32;;;;;;;3.30;1.80;;;;;;;4.97;77.95;101594.28;5035301;28;20037;-74
2023/03/29 00:08:00;;;;;;;3.72;1.67;;;;;;;4.96;77.35;101592.56;5038924;28;20593;-75
2023/03/29 00:10:26;;;;;;;3.92;2.00;;;;;;;4.96;78.08;101594.28;5034554;28;20040;-74
2023/03/29 00:12:52;;;;;;;3.50;1.98;;;;;;;4.97;77.46;101591.72;5034823;28;20021;-75
2023/03/29 00:15:18;;;;;;;4.20;1.95;;;;;;;4.98;77.48;101585.72;5033961;28;20040;-74
2023/03/29 00:17:43;;;;;;;3.60;2.10;;;;;;;4.98;77.99;101577.13;5033531;28;20052;-74
2023/03/29 00:20:09;;;;;;;4.10;1.98;;;;;;;4.96;78.17;101574.50;5033106;28;20034;-74
2023/03/29 00:22:40;;;;;;;3.65;2.03;;;;;;;4.96;77.57;101576.25;5032711;28;20160;-74
2023/03/29 00:25:06;;;;;;;3.38;2.00;;;;;;;4.97;78.26;101568.50;5033890;28;20461;-74
2023/03/29 00:27:32;;;;;;;3.88;2.08;;;;;;;4.95;77.94;101567.63;5028417;28;20364;-74
2023/03/29 00:29:58;;;;;;;3.35;1.73;;;;;;;4.96;77.78;101569.34;5032663;28;20021;-74
2023/03/29 00:32:24;;;;;;;4.50;2.17;;;;;;;4.95;77.94;101566.78;5015212;28;20090;-74
2023/03/29 00:34:49;;;;;;;4.05;2.20;;;;;;;4.96;77.58;101569.34;5037036;28;20033;-75
2023/03/29 00:37:18;;;;;;;3.50;1.90;;;;;;;5.00;77.94;101567.69;5034393;28;20112;-75
2023/03/29 00:39:46;;;;;;;2.78;1.95;;;;;;;5.00;77.90;101565.09;5037345;28;20032;-74
2023/03/29 00:42:15;;;;;;;3.90;1.90;;;;;;;4.99;77.81;101564.22;5031528;28;21604;-75
2023/03/29 00:45:04;;;;;;;3.80;2.00;;;;;;;5.00;77.69;101568.53;5029382;28;20034;-75
2023/03/29 00:47:43;;;;;;;3.40;1.90;;;;;;;5.03;77.92;101570.31;5030998;28;20024;-75
2023/03/29 00:50:15;;;;;;;3.72;1.83;;;;;;;5.06;77.38;101561.72;5030667;28;20022;-74
2023/03/29 00:52:43;;;;;;;5.55;2.13;;;;;;;5.07;77.87;101555.72;5042531;28;20099;-75
2023/03/29 00:55:14;;;;;;;4.03;2.08;;;;;;;5.09;77.77;101564.31;5041678;28;20021;-74
2023/03/29 00:57:45;;;;;;;4.53;2.20;;;;;;;5.10;77.30;101555.75;5033753;28;20099;-75
2023/03/29 01:00:12;;;;;;;3.28;2.05;;;;;;;5.11;77.13;101549.72;5033683;28;20033;-74
2023/03/29 01:02:38;;;;;;;3.33;1.90;;;;;;;5.12;77.53;101538.56;5040766;28;20060;-75
2023/03/29 01:05:16;;;;;;;4.03;1.80;;;;;;;5.12;77.25;101528.25;5039397;28;20040;-74
2023/03/29 01:07:57;;;;;;;3.88;1.90;;;;;;;5.14;76.85;101534.25;5039474;28;20037;-74
2023/03/29 01:10:48;;;;;;;4.10;1.92;;;;;;;5.14;76.48;101532.56;5035598;28;20112;-74
2023/03/29 01:13:20;;;;;;;3.65;1.92;;;;;;;5.16;76.72;101529.97;5033916;28;20029;-75
2023/03/29 01:15:46;;;;;;;4.10;2.20;;;;;;;5.16;76.80;101532.56;5033902;28;20022;-75
2023/03/29 01:18:12;;;;;;;4.55;1.98;;;;;;;5.19;76.76;101542.06;5036972;28;20159;-74
2023/03/29 01:21:19;;;;;;;3.67;2.17;;;;;;;5.20;76.19;101521.41;5042895;28;20166;-74
2023/03/29 01:24:08;;;;;;;2.83;1.80;;;;;;;5.20;76.26;101529.16;5032241;28;20085;-75
2023/03/29 01:26:58;;;;;;;3.67;2.20;;;;;;;5.20;77.34;101526.56;5033730;28;20032;-74
2023/03/29 01:29:28;;;;;;;3.67;1.90;;;;;;;5.21;77.40;101528.31;5033951;28;20037;-75
2023/03/29 01:31:59;;;;;;;3.22;1.60;;;;;;;5.19;77.44;101524.00;5037402;28;20083;-74
2023/03/29 01:34:33;;;;;;;4.85;2.00;;;;;;;5.22;77.56;101524.88;5038486;28;20056;-75
2023/03/29 01:37:09;;;;;;;3.53;2.05;;;;;;;5.22;77.55;101521.41;5039768;28;20029;-75
2023/03/29 01:39:34;;;;;;;2.80;1.80;;;;;;;5.22;77.64;101513.69;5035007;28;20026;-74
2023/03/29 01:42:14;;;;;;;3.58;1.90;;;;;;;5.22;77.82;101504.25;5032114;28;20021;-74
2023/03/29 01:45:08;;;;;;;5.68;1.90;;;;;;;5.23;77.75;101490.50;5033260;28;20025;-75
2023/03/29 01:48:13;;;;;;;4.47;2.03;;;;;;;5.24;78.21;101506.81;5032298;28;20029;-75
2023/03/29 01:50:47;;;;;;;2.92;1.88;;;;;;;5.23;78.81;101489.59;5032154;28;20465;-74
2023/03/29 01:53:32;;;;;;;2.28;1.63;;;;;;;5.23;78.47;101485.34;5030681;28;20036;-74
2023/03/29 01:56:04;;;;;;;3.22;1.60;;;;;;;5.24;78.89;101488.75;5024989;28;20032;-74
2023/03/29 01:58:32;;;;;;;;;;;;;;;5.27;77.49;101484.50;5033883;28;20021;-75
2023/03/29 02:01:04;;;;;;;4.85;1.80;;;;;;;5.26;78.97;101487.06;5033241;28;19913;-74
2023/03/29 02:03:30;;;;;;;;;;;;;;;5.28;77.47;101478.50;5029220;28;20033;-74
2023/03/29 02:05:57;;;;;;;4.10;1.90;;;;;;;5.27;79.57;101481.94;5033904;28;19920;-75
2023/03/29 02:08:24;;;;;;;4.85;1.80;;;;;;;5.27;79.26;101474.19;5028963;28;20095;-74
2023/03/29 02:10:50;;;;;;;4.22;1.83;;;;;;;5.29;80.17;101481.94;5035772;28;20017;-74
2023/03/29 02:13:16;;;;;;;5.28;2.30;;;;;;;5.31;79.61;101483.66;5033048;28;20053;-75
2023/03/29 02:15:43;;;;;;;3.75;1.90;;;;;;;5.31;80.60;101472.47;5035807;28;20759;-74
2023/03/29 02:18:09;;;;;;;2.75;1.85;;;;;;;5.32;80.19;101475.06;5031694;28;20111;-75
2023/03/29 02:20:39;;;;;;;4.20;1.92;;;;;;;5.31;80.54;101475.06;5044042;28;20369;-75
2023/03/29 02:23:08;;;;;;;5.10;2.00;;;;;;;5.33;80.68;101468.19;5033737;28;20025;-74
2023/03/29 02:25:36;;;;;;;3.45;1.92;;;;;;;5.32;80.81;101467.31;5036722;28;20043;-74
2023/03/29 02:28:03;;;;;;;3.72;1.70;;;;;;;5.34;81.54;101467.34;5036274;28;20075;-74
2023/03/29 02:30:53;;;;;;;3.53;1.90;;;;;;;5.34;81.73;101458.72;5034816;28;20033;-74
2023/03/29 02:33:24;;;;;;;3.17;1.90;;;;;;;5.35;81.39;101453.59;5039898;28;20009;-74
2023/03/29 02:36:03;;;;;;;3.92;1.83;;;;;;;5.34;81.77;101448.41;5032030;28;20490;-75
2023/03/29 02:38:30;;;;;;;3.42;1.88;;;;;;;5.33;82.23;101450.13;5034883;28;20031;-74
2023/03/29 02:40:58;;;;;;;3.65;1.80;;;;;;;5.32;82.12;101444.09;5036015;28;20032;-74
2023/03/29 02:43:26;;;;;;;4.82;1.88;;;;;;;5.31;82.82;101442.38;5029908;28;20029;-74
2023/03/29 02:45:52;;;;;;;4.13;2.30;;;;;;;5.31;83.24;101437.22;5020242;28;20388;-74
2023/03/29 02:48:22;;;;;;;3.63;1.80;;;;;;;5.30;82.65;101429.47;5036668;28;20033;-74
2023/03/29 02:50:52;;;;;;;3.88;1.90;;;;;;;5.30;82.60;101430.31;5030146;28;20738;-74
2023/03/29 02:53:25;;;;;;;3.63;1.95;;;;;;;5.31;83.06;101426.88;5026358;28;20033;-74
2023/03/29 02:55:51;;;;;;;4.30;1.95;;;;;;;5.32;82.95;101428.63;5025405;28;20232;-74
2023/03/29 02:58:16;;;;;;;3.95;1.67;;;;;;;5.32;82.82;101420.88;5031484;28;20033;-75
2023/03/29 03:00:45;;;;;;;3.42;1.90;;;;;;;5.32;82.72;101420.88;5034118;28;20032;-75
2023/03/29 03:03:14;;;;;;;3.20;1.58;;;;;;;5.35;82.05;101416.59;5030967;28;20038;-74
2023/03/29 03:05:39;;;;;;;4.60;1.75;;;;;;;5.35;82.25;101414.88;5031695;28;20021;-75
2023/03/29 03:08:06;;;;;;;3.38;1.90;;;;;;;5.38;82.38;101421.78;5031833;28;20083;-75
2023/03/29 03:10:34;;;;;;;2.83;1.70;;;;;;;5.38;82.41;101422.63;5032486;28;20040;-75
2023/03/29 03:13:00;;;;;;;3.47;1.60;;;;;;;5.39;82.46;101413.19;5033776;28;20041;-75
2023/03/29 03:15:26;;;;;;;2.67;1.40;;;;;;;5.40;82.42;101410.59;5028356;28;20029;-75
2023/03/29 03:17:51;;;;;;;3.00;1.60;;;;;;;5.41;82.25;101401.16;5032412;28;20021;-75
2023/03/29 03:20:17;;;;;;;3.10;1.70;;;;;;;5.42;nan;101400.31;5027443;28;20431;-75
2023/03/29 03:22:48;;;;;;;2.78;1.70;;;;;;;5.42;82.02;101393.41;5036471;28;20048;-74
2023/03/29 03:25:15;;;;;;;1.55;1.25;;;;;;;5.44;81.60;101390.84;5022265;28;20103;-75
2023/03/29 03:27:42;;;;;;;2.88;1.70;;;;;;;5.45;81.57;101397.75;5028026;28;20157;-75
2023/03/29 03:30:08;;;;;;;2.65;1.55;;;;;;;5.47;80.73;101396.00;5032429;28;20047;-74
2023/03/29 03:32:34;;;;;;;4.22;1.70;;;;;;;5.49;81.15;101393.44;5041458;28;20033;-75
2023/03/29 03:35:00;;;;;;;2.92;1.70;;;;;;;5.50;80.81;101383.13;5036999;28;20079;-75
2023/03/29 03:37:26;;;;;;;4.20;1.67;;;;;;;5.53;80.44;101390.03;5036200;28;20025;-75
2023/03/29 03:39:52;;;;;;;2.78;1.48;;;;;;;5.53;80.22;101388.28;5030055;28;20545;-74
2023/03/29 03:42:17;;;;;;;2.60;1.55;;;;;;;5.57;79.65;101386.56;5036577;28;20024;-75
2023/03/29 03:44:43;;;;;;;2.83;1.45;;;;;;;5.58;79.20;101384.03;5026588;28;20037;-74
2023/03/29 03:47:09;;;;;;;2.50;1.40;;;;;;;5.60;79.38;101391.75;5027942;28;20376;-74
2023/03/29 03:49:34;;;;;;;3.78;1.70;;;;;;;5.60;78.97;101397.81;5027671;28;20559;-74
2023/03/29 03:52:00;;;;;;;3.33;1.58;;;;;;;5.62;78.58;101401.25;5032745;28;20052;-75
2023/03/29 03:54:26;;;;;;;3.28;1.60;;;;;;;5.65;78.79;101396.94;5034194;28;20101;-75
2023/03/29 03:56:51;;;;;;;3.17;1.60;;;;;;;5.66;78.39;101385.75;5034959;28;20500;-75
2023/03/29 03:59:17;;;;;;;3.75;1.90;;;;;;;5.68;78.47;101389.19;5033496;28;20033;-75
2023/03/29 04:01:45;;;;;;;4.80;1.95;;;;;;;5.69;78.26;101394.38;5031279;28;20031;-74
2023/03/29 04:04:11;;;;;;;3.50;1.75;;;;;;;5.71;77.90;101391.81;5036934;28;20041;-75
2023/03/29 04:06:38;;;;;;;2.85;1.80;;;;;;;5.72;77.71;101394.38;5034897;28;20447;-75
2023/03/29 04:09:04;;;;;;;4.03;1.80;;;;;;;5.74;77.19;101389.22;5030257;28;20025;-75
2023/03/29 04:11:29;;;;;;;4.57;1.80;;;;;;;5.74;77.82;101389.22;5033203;28;20078;-75
2023/03/29 04:13:56;;;;;;;4.38;1.50;;;;;;;5.75;77.84;101388.38;5037301;28;20028;-74
2023/03/29 04:16:22;;;;;;;2.38;1.45;;;;;;;5.74;77.95;101381.50;5036608;28;20029;-74
2023/03/29 04:18:47;;;;;;;3.38;1.80;;;;;;;5.73;77.34;101379.75;5036389;28;20021;-75
2023/03/29 04:21:12;;;;;;;3.80;1.95;;;;;;;5.73;77.28;101374.59;5032383;28;20532;-75
2023/03/29 04:23:38;;;;;;;3.75;1.73;;;;;;;5.74;77.60;101377.16;5035931;28;20032;-74
2023/03/29 04:26:03;;;;;;;2.83;1.75;;;;;;;5.74;77.37;101377.16;5032278;28;20079;-75
2023/03/29 04:28:28;;;;;;;2.92;1.80;;;;;;;5.74;77.15;101373.75;5034891;28;20384;-75
2023/03/29 04:30:53;;;;;;;2.95;1.63;;;;;;;5.76;77.14;101372.03;5019521;28;20021;-74
2023/03/29 04:33:19;;;;;;;6.20;2.03;;;;;;;5.75;76.93;101370.31;5031841;28;20021;-74
2023/03/29 04:35:45;;;;;;;3.75;1.83;;;;;;;5.76;77.52;101372.03;5032016;28;20075;-74
2023/03/29 04:38:11;;;;;;;4.57;2.13;;;;;;;5.76;77.28;101374.63;5030679;28;20040;-75
2023/03/29 04:40:37;;;;;;;5.30;1.80;;;;;;;5.77;77.26;101373.75;5033740;28;20029;-74
2023/03/29 04:43:02;;;;;;;4.53;1.90;;;;;;;5.75;77.27;101368.56;5035231;28;20163;-75
2023/03/29 04:45:28;;;;;;;3.80;1.60;;;;;;;5.76;77.85;101369.44;5034767;28;20451;-75
2023/03/29 04:48:00;;;;;;;4.53;1.60;;;;;;;5.75;77.68;101362.56;5018971;28;20025;-75
2023/03/29 04:50:25;;;;;;;;;;;;;;;5.80;77.15;101372.91;5033775;28;20056;-74
2023/03/29 04:52:51;;;;;;;2.88;1.58;;;;;;;5.78;77.43;101366.00;5032108;28;19948;-74
2023/03/29 04:55:16;;;;;;;3.42;1.77;;;;;;;5.78;77.08;101360.84;5029913;28;20028;-75
2023/03/29 04:57:43;;;;;;;4.07;1.77;;;;;;;5.79;77.01;101361.72;5031528;28;20021;-74
2023/03/29 05:00:15;;;;;;;3.17;1.42;;;;;;;5.81;77.22;101364.28;5033935;28;20028;-75
2023/03/29 05:02:42;;;;;;;2.30;1.42;;;;;;;5.81;77.13;101349.66;5029773;28;20129;-75
2023/03/29 05:05:08;;;;;;;3.78;1.80;;;;;;;5.82;77.59;101351.38;5038147;28;20032;-74
2023/03/29 05:07:34;;;;;;;3.65;1.90;;;;;;;5.83;76.92;101352.25;5015262;28;20369;-75
2023/03/29 05:10:00;;;;;;;3.35;1.50;;;;;;;5.83;77.20;101353.09;5034629;28;20111;-75
2023/03/29 05:12:25;;;;;;;3.55;1.65;;;;;;;5.83;77.43;101353.09;5031848;28;20095;-74
2023/03/29 05:14:50;;;;;;;3.15;1.67;;;;;;;5.84;77.09;101348.81;5032721;28;20160;-75
2023/03/29 05:17:16;;;;;;;2.97;1.48;;;;;;;5.85;77.66;101356.56;5033130;28;20057;-75
2023/03/29 05:19:42;;;;;;;3.15;1.70;;;;;;;5.85;76.76;101348.81;5032387;28;20033;-75
2023/03/29 05:22:07;;;;;;;2.70;1.75;;;;;;;5.86;77.62;101347.94;5034753;28;20021;-75
2023/03/29 05:24:34;;;;;;;3.00;1.73;;;;;;;5.88;76.97;101347.97;5033944;28;20030;-74
2023/03/29 05:26:59;;;;;;;3.15;1.73;;;;;;;5.89;77.06;101352.28;5032063;28;20365;-75
2023/03/29 05:29:25;;;;;;;2.78;1.45;;;;;;;5.90;77.23;101357.44;5040975;28;20024;-75
2023/03/29 05:31:51;;;;;;;4.15;1.88;;;;;;;5.94;77.23;101360.88;5028905;28;20029;-74
2023/03/29 05:34:17;;;;;;;3.20;1.77;;;;;;;5.96;77.33;101358.31;5028949;28;20152;-75
2023/03/29 05:36:44;;;;;;;4.35;1.77;;;;;;;5.97;77.37;101357.44;5037413;28;20040;-75
2023/03/29 05:39:09;;;;;;;3.35;2.00;;;;;;;6.00;77.24;101360.94;5034311;28;20396;-74
2023/03/29 05:41:35;;;;;;;3.85;1.85;;;;;;;6.02;77.38;101366.06;5033784;28;20032;-74
2023/03/29 05:44:00;;;;;;;3.55;1.92;;;;;;;6.03;77.51;101355.78;5035715;28;20021;-74
2023/03/29 05:46:25;;;;;;;4.03;1.92;;;;;;;6.05;77.48;101356.63;5029979;28;20081;-74
2023/03/29 05:48:51;;;;;;;3.63;1.85;;;;;;;6.05;77.38;101360.94;5032030;28;20033;-74
2023/03/29 05:51:17;;;;;;;4.78;1.77;;;;;;;6.07;77.27;101356.63;5031257;28;20031;-74
2023/03/29 05:53:44;;;;;;;3.20;2.00;;;;;;;6.09;77.42;101357.50;5030241;28;20493;-74
2023/03/29 05:56:10;;;;;;;4.65;2.00;;;;;;;6.11;77.30;101358.38;5035834;28;20196;-74
2023/03/29 05:58:37;;;;;;;3.13;1.90;;;;;;;6.14;77.42;101366.13;5034244;28;20055;-74
2023/03/29 06:01:04;;;;;;;3.78;2.28;;;;;;;6.16;77.09;101369.53;5034583;28;20187;-74
2023/03/29 06:03:29;;;;;;;6.25;2.20;;;;;;;6.18;77.13;101373.00;5033814;28;20053;-74
2023/03/29 06:05:57;;;;;;;4.20;2.10;;;;;;;6.22;77.47;101374.72;5014941;28;20095;-75
2023/03/29 06:08:24;;;;;;;3.42;2.08;;;;;;;6.26;77.13;101372.16;5038308;28;20037;-74
2023/03/29 06:10:50;;;;;;;6.22;2.25;;;;;;;6.29;77.13;101367.00;5030361;28;20029;-75
2023/03/29 06:13:16;;;;;;;4.20;2.00;;;;;;;6.32;77.33;101367.84;5031761;28;20362;-75
2023/03/29 06:15:41;;;;;;;5.88;2.13;;;;;;;6.35;76.75;101369.56;5032348;28;20484;-75
2023/03/29 06:18:06;;;;;;;4.35;1.90;;;;;;;6.39;77.26;101368.69;5034235;28;20480;-75
2023/03/29 06:20:32;;;;;;;3.20;1.90;;;;;;;6.42;76.68;101368.72;5031717;28;20025;-75
2023/03/29 06:22:57;;;;;;;4.07;2.10;;;;;;;6.45;77.20;101362.66;5030647;28;20033;-75
2023/03/29 06:25:23;;;;;;;5.03;1.95;;;;;;;6.49;77.36;101366.97;5044733;28;20040;-75
2023/03/29 06:27:49;;;;;;;4.53;1.88;;;;;;;6.52;77.08;101365.25;5041114;28;20119;-75
2023/03/29 06:30:15;;;;;;;3.65;1.90;;;;;;;6.56;76.93;101362.66;5037371;28;20047;-75
2023/03/29 06:32:41;;;;;;;4.60;1.92;;;;;;;6.59;77.05;101365.25;5030650;28;20052;-75
2023/03/29 06:35:08;;;;;;;3.80;2.00;;;;;;;6.66;77.02;101377.31;5031278;28;20029;-74
2023/03/29 06:37:34;;;;;;;4.25;2.20;;;;;;;6.69;76.95;101366.97;5030614;28;20026;-74
2023/03/29 06:39:59;;;;;;;5.80;2.25;;;;;;;6.73;76.75;101363.50;5029412;28;20040;-75
2023/03/29 06:42:25;;;;;;;4.78;2.25;;;;;;;6.77;76.62;101361.78;5029499;28;20045;-75
2023/03/29 06:44:51;;;;;;;6.03;2.30;;;;;;;6.80;76.93;101354.91;5021261;28;20037;-75
2023/03/29 06:47:16;;;;;;;4.03;2.20;;;;;;;6.86;76.84;101358.31;5028653;28;20025;-75
2023/03/29 06:49:42;;;;;;;4.50;2.30;;;;;;;6.91;77.09;101356.59;5028927;28;20033;-75
2023/03/29 06:52:09;;;;;;;3.70;2.20;;;;;;;6.93;76.38;101366.06;5031362;28;20036;-75
2023/03/29 06:54:34;;;;;;;3.92;2.10;;;;;;;6.99;75.94;101363.47;5029119;28;20029;-74
2023/03/29 06:57:00;;;;;;;4.35;2.00;;;;;;;7.03;76.39;101369.47;5030632;28;20040;-75
2023/03/29 06:59:26;;;;;;;4.45;2.20;;;;;;;7.06;76.22;101360.88;5030172;28;20499;-75
2023/03/29 07:01:52;;;;;;;5.85;2.17;;;;;;;7.11;76.62;101367.75;5030294;28;20025;-74
2023/03/29 07:04:18;;;;;;;4.18;2.30;;;;;;;7.15;76.21;101366.00;5025646;28;20052;-74
2023/03/29 07:06:47;;;;;;;6.53;2.30;;;;;;;7.19;76.18;101366.84;5009326;28;20033;-75
2023/03/29 07:09:14;;;;;;;9.98;2.65;;;;;;;7.23;76.35;101364.28;5010602;28;20065;-74
2023/03/29 07:11:40;;;;;;;5.63;2.40;;;;;;;7.28;75.95;101372.00;5030769;28;20032;-77
2023/03/29 07:14:05;;;;;;;4.05;2.40;;;;;;;7.32;76.22;101373.72;5030709;28;20033;-74
2023/03/29 07:16:31;;;;;;;4.88;2.42;;;;;;;7.37;76.83;101371.13;5031093;28;20392;-74
2023/03/29 07:18:56;;;;;;;4.57;2.30;;;;;;;7.40;76.06;101366.78;5029696;28;20021;-75
2023/03/29 07:21:22;;;;;;;6.15;2.20;;;;;;;7.46;76.79;101365.88;5030230;28;20038;-75
2023/03/29 07:23:47;;;;;;;5.82;2.40;;;;;;;7.50;76.50;101371.94;5029474;28;20025;-75
2023/03/29 07:26:13;;;;;;;5.65;2.40;;;;;;;7.54;76.77;101373.63;5030663;28;20107;-74
2023/03/29 07:28:38;;;;;;;4.40;2.40;;;;;;;7.57;76.54;101378.78;5030815;28;20032;-74
2023/03/29 07:31:09;;;;;;;6.32;2.55;;;;;;;7.59;76.76;101375.34;5028723;28;20022;-74
2023/03/29 07:33:36;;;;;;;4.97;2.35;;;;;;;7.61;76.50;101377.91;5029933;28;20025;-74
2023/03/29 07:36:02;;;;;;;4.00;2.08;;;;;;;7.65;76.88;101376.16;5030527;28;20498;-75
2023/03/29 07:38:28;;;;;;;5.88;2.45;;;;;;;7.68;76.45;101387.38;5030544;28;20022;-75
2023/03/29 07:40:53;;;;;;;5.78;2.90;;;;;;;7.70;76.57;101392.53;5029873;28;20116;-74
2023/03/29 07:43:19;;;;;;;6.50;2.47;;;;;;;7.74;76.40;101389.94;5030337;28;20017;-74
2023/03/29 07:45:45;;;;;;;6.00;2.78;;;;;;;7.77;76.29;101398.56;5031672;28;20116;-74
2023/03/29 07:48:11;;;;;;;5.35;2.85;;;;;;;7.78;76.78;101392.50;5034528;28;20516;-75
2023/03/29 07:50:37;;;;;;;7.13;2.90;;;;;;;7.81;76.64;101400.25;5032507;28;20480;-74
2023/03/29 07:53:02;;;;;;;5.10;2.50;;;;;;;7.84;76.66;101402.84;5031639;28;20021;-74
2023/03/29 07:55:28;;;;;;;4.53;2.67;;;;;;;7.84;76.29;101402.84;5034497;28;20473;-75
2023/03/29 07:57:53;;;;;;;6.55;2.63;;;;;;;7.85;77.35;101410.59;5034126;28;20036;-75
2023/03/29 08:00:19;;;;;;;5.32;2.63;;;;;;;7.87;77.24;101402.81;5032457;28;20893;-75
2023/03/29 08:02:48;;;;;;;6.65;2.70;;;;;;;7.93;77.46;101407.13;5031827;28;20046;-75
2023/03/29 08:05:14;;;;;;;6.35;2.85;;;;;;;7.94;77.85;101406.25;5031960;28;20505;-75
2023/03/29 08:07:41;;;;;;;5.13;2.60;;;;;;;7.97;77.72;101403.63;5033974;28;20211;-75
2023/03/29 08:10:09;;;;;;;5.72;2.83;;;;;;;7.98;77.93;101406.22;5031384;28;20051;-75
2023/03/29 08:12:36;;;;;;;5.55;2.47;;;;;;;7.99;78.20;101400.16;5033850;28;20029;-75
2023/03/29 08:15:01;;;;;;;6.00;2.42;;;;;;;8.03;78.75;101401.84;5032305;28;20040;-74
2023/03/29 08:17:27;;;;;;;7.90;2.92;;;;;;;8.07;79.83;101412.19;5033774;28;20377;-75
2023/03/29 08:19:52;;;;;;;5.85;3.00;;;;;;;8.10;80.23;101400.09;5031562;28;20083;-75
2023/03/29 08:22:17;;;;;;;9.10;3.53;;;;;;;8.10;80.30;101392.34;5031794;28;20032;-75
2023/03/29 08:24:42;;;;;;;7.55;3.08;;;;;;;8.12;80.99;101397.50;5032853;28;20060;-75
2023/03/29 08:27:08;;;;;;;6.00;2.85;;;;;;;8.14;80.27;101391.41;5016002;28;20084;-75
2023/03/29 08:29:33;;;;;;;7.38;3.00;;;;;;;8.15;80.82;101398.31;5032782;28;20061;-74
2023/03/29 08:31:58;;;;;;;6.32;3.00;;;;;;;8.17;81.94;101395.75;5030224;28;20029;-75
2023/03/29 08:34:23;;;;;;;5.35;2.83;;;;;;;8.17;81.05;101398.34;5029284;28;20112;-74
2023/03/29 08:36:49;;;;;;;6.40;3.13;;;;;;;8.16;81.97;101394.00;5029896;28;20033;-75
2023/03/29 08:39:14;;;;;;;8.23;3.35;;;;;;;8.13;82.42;101388.84;5030330;28;20112;-75
2023/03/29 08:41:58;;;;;;;6.60;3.08;;;;;;;8.15;81.78;101385.38;5032872;28;20025;-75
2023/03/29 08:44:54;;;;;;;6.05;3.30;;;;;;;8.19;82.45;101391.41;5032159;28;20049;-75
2023/03/29 08:47:39;;;;;;;8.05;3.70;;;;;;;8.27;82.43;101392.19;5029397;28;20374;-75
2023/03/29 08:50:05;;;;;;;6.88;3.25;;;;;;;8.40;84.12;101376.53;5029758;28;20464;-75
2023/03/29 08:52:36;;;;;;;7.07;3.40;;;;;;;8.49;84.13;101371.31;5031605;28;20593;-75
2023/03/29 08:55:07;;;;;;;6.32;3.40;;;;;;;8.58;83.98;101381.59;5032987;28;20025;-75
2023/03/29 08:57:42;;;;;;;5.45;3.30;;;;;;;8.64;82.94;101376.38;5031229;28;20022;-75
2023/03/29 09:00:18;;;;;;;6.70;3.60;;;;;;;8.65;83.38;101372.03;5029724;28;20025;-75
2023/03/29 09:02:44;;;;;;;8.43;4.15;;;;;;;8.66;83.65;101381.53;5039613;28;20295;-75
2023/03/29 09:05:32;;;;;;;6.20;3.40;;;;;;;8.68;82.92;101378.94;5032506;28;20022;-75
2023/03/29 09:07:57;;;;;;;7.63;3.67;;;;;;;8.72;83.47;101375.44;5030857;28;20084;-75
2023/03/29 09:10:41;;;;;;;7.00;3.38;;;;;;;8.75;83.43;101378.88;5032040;28;20025;-74
2023/03/29 09:13:18;;;;;;;8.70;3.30;;;;;;;8.87;83.23;101380.50;5031277;28;20029;-74
2023/03/29 09:16:14;;;;;;;8.73;3.72;;;;;;;8.96;82.92;101380.38;5033787;28;20033;-75
2023/03/29 09:18:55;;;;;;;6.97;3.55;;;;;;;9.04;83.93;101369.09;5004639;28;20042;-75
2023/03/29 09:21:45;;;;;;;7.05;3.58;;;;;;;9.12;83.04;101372.44;5031658;28;20071;-75
2023/03/29 09:24:37;;;;;;;7.18;3.67;;;;;;;9.18;82.65;101371.50;5028560;28;20022;-75
2023/03/29 09:27:31;;;;;;;6.80;3.60;;;;;;;9.25;83.20;101380.94;5028680;28;20377;-75
2023/03/29 09:30:04;;;;;;;8.80;3.53;;;;;;;9.27;83.28;101380.03;5008340;28;20045;-75
2023/03/29 09:32:32;;;;;;;7.25;3.63;;;;;;;9.24;82.75;101380.06;5028620;28;20018;-75
2023/03/29 09:35:10;;;;;;;6.95;3.60;;;;;;;9.21;82.62;101366.28;5030623;28;20017;-75
2023/03/29 09:37:38;;;;;;;6.38;3.78;;;;;;;9.20;83.27;101373.22;5030802;28;20036;-75
2023/03/29 09:40:29;;;;;;;6.30;3.30;;;;;;;9.21;82.99;101377.53;5031294;28;20108;-75
2023/03/29 09:42:57;;;;;;;7.25;3.67;;;;;;;9.24;82.47;101377.47;5028756;28;20068;-75
2023/03/29 09:45:22;;;;;;;7.80;3.50;;;;;;;9.23;82.96;101370.56;5013251;28;20495;-75
2023/03/29 09:48:14;;;;;;;6.63;3.65;;;;;;;9.19;82.65;101383.59;5031705;28;20033;-75
2023/03/29 09:50:42;;;;;;;6.75;4.00;;;;;;;9.15;84.32;101380.19;5030673;28;20079;-75
2023/03/29 09:53:08;;;;;;;10.65;3.70;;;;;;;9.16;84.08;101368.94;5029771;28;20389;-75
2023/03/29 09:55:36;;;;;;;6.90;4.38;;;;;;;9.19;85.38;101371.50;5030678;28;20025;-75
2023/03/29 09:58:11;;;;;;;7.35;3.85;;;;;;;9.25;85.06;101371.41;5030992;28;20095;-75
2023/03/29 10:00:36;;;;;;;7.38;3.90;;;;;;;9.29;84.98;101373.97;5031817;28;20029;-75
2023/03/29 10:03:01;;;;;;;7.93;4.00;;;;;;;9.27;85.34;101382.63;5030365;28;20053;-75
2023/03/29 10:05:31;;;;;;;6.88;3.55;;;;;;;9.24;85.44;101387.03;5030544;28;20512;-75
2023/03/29 10:07:59;;;;;;;7.97;3.88;;;;;;;9.21;85.44;101382.72;5030105;28;20091;-75
2023/03/29 10:10:34;;;;;;;8.40;4.10;;;;;;;9.28;85.56;101383.53;5030743;28;20025;-75
2023/03/29 10:13:05;;;;;;;7.40;4.20;;;;;;;9.31;85.79;101382.63;5031225;28;20037;-75
2023/03/29 10:15:31;;;;;;;7.55;4.03;;;;;;;9.33;85.60;101391.25;5031378;28;20029;-75
2023/03/29 10:18:05;;;;;;;7.95;4.28;;;;;;;9.32;86.31;101379.97;5031419;28;20025;-75
2023/03/29 10:20:34;;;;;;;8.82;4.20;;;;;;;9.38;85.65;101386.88;5030386;28;20036;-75
2023/03/29 10:22:59;;;;;;;7.85;4.00;;;;;;;9.45;86.19;101380.72;5030900;28;20033;-75
2023/03/29 10:25:28;;;;;;;12.82;4.78;;;;;;;9.51;86.17;101377.16;5031869;28;20255;-75
2023/03/29 10:28:02;;;;;;;7.80;4.43;;;;;;;9.56;86.56;101368.44;5026218;28;20332;-75
2023/03/29 10:30:32;;;;;;;7.20;4.15;;;;;;;9.69;86.78;101358.75;5030661;28;20083;-75
2023/03/29 10:32:59;;;;;;;12.77;4.35;;;;;;;9.85;86.78;101358.53;5028677;28;20032;-75
2023/03/29 10:35:54;;;;;;;19.33;4.60;;;;;;;9.89;84.99;101360.22;5028600;28;20052;-75
2023/03/29 10:38:23;;;;;;;13.30;4.65;;;;;;;9.90;85.18;101361.09;5013238;28;20047;-75
2023/03/29 10:40:52;;;;;;;27.77;5.95;;;;;;;9.91;84.67;101358.44;5031627;28;20022;-75
2023/03/29 10:43:21;;;;;;;23.27;5.78;;;;;;;9.94;84.84;101357.53;5027446;28;20095;-75
2023/03/29 10:45:48;;;;;;;15.80;4.82;;;;;;;9.97;84.83;101362.69;5013706;28;20108;-75
2023/03/29 10:48:16;;;;;;;12.23;4.30;;;;;;;9.98;84.77;101364.41;5030316;28;20104;-74
2023/03/29 10:50:47;;;;;;;10.25;4.50;;;;;;;10.00;84.76;101357.44;5030169;28;20025;-74
2023/03/29 10:53:23;;;;;;;8.57;3.87;;;;;;;10.11;84.70;101354.69;5034280;28;20025;-74
2023/03/29 10:56:14;;;;;;;8.05;4.25;;;;;;;10.28;85.35;101350.09;5028129;28;20088;-75
2023/03/29 10:59:07;;;;;;;8.10;4.15;;;;;;;10.54;85.82;101345.34;5028073;28;20472;-74
2023/03/29 11:02:11;;;;;;;8.02;4.00;;;;;;;10.74;84.50;101338.06;5028786;28;20025;-75
2023/03/29 11:05:02;;;;;;;16.83;5.20;;;;;;;10.84;83.46;101332.66;5029524;28;20412;-75
2023/03/29 14:28:23;;;;;;;5.00;2.90;;;;;;;13.55;69.55;101137.03;5097456;27;20362;-76
2023/03/29 14:30:51;;;;;;;5.07;3.10;;;;;;;13.49;69.99;101128.47;5088958;28;20096;-75
2023/03/29 14:33:28;;;;;;;4.82;2.95;;;;;;;13.48;71.19;101129.41;5083917;28;20091;-75
2023/03/29 14:35:55;;;;;;;5.15;3.28;;;;;;;13.48;70.11;101126.81;5077525;28;20036;-75
2023/03/29 14:38:22;;;;;;;6.55;3.00;;;;;;;13.50;71.70;101118.91;5084878;28;20142;-76
2023/03/29 14:40:48;;;;;;;5.72;3.50;;;;;;;13.50;72.07;101109.28;5088043;28;20031;-76
2023/03/29 14:43:21;;;;;;;5.60;2.95;;;;;;;13.53;72.97;101108.34;5089472;28;20161;-76
2023/03/29 14:45:47;;;;;;;4.70;3.20;;;;;;;13.55;71.86;101113.50;5095153;28;20032;-76
2023/03/29 14:48:13;;;;;;;5.57;3.10;;;;;;;13.55;71.98;101108.28;5091564;28;20052;-76
2023/03/29 14:50:40;;;;;;;4.38;3.05;;;;;;;13.56;71.80;101102.16;5092990;28;20032;-76
2023/03/29 14:53:07;;;;;;;5.53;3.13;;;;;;;13.59;72.54;101102.03;5092702;28;20024;-76
2023/03/29 14:55:32;;;;;;;4.13;2.97;;;;;;;13.60;71.67;101101.97;5091374;28;20036;-76
2023/03/29 14:57:59;;;;;;;5.63;2.83;;;;;;;13.61;72.39;101092.41;5092302;28;20454;-76
2023/03/29 15:00:25;;;;;;;5.95;2.85;;;;;;;13.59;72.10;101086.38;5087033;28;20036;-76
2023/03/29 15:02:58;;;;;;;6.93;3.20;;;;;;;13.59;72.30;101081.97;5090222;28;20477;-76
2023/03/29 15:05:39;;;;;;;5.82;2.92;;;;;;;13.67;73.45;101068.63;5084056;28;20066;-76